Terminal Aerodrome Forecast
Issued by NWS

Home | Current Version | Previous Version | Text Only | Print | Product List | Glossary On
Versions: 1 2 3 4 5 6 7 8 9 10 11 12 13 14 15 16 17 18 19
000
FTUS43 KAPX 012331
TAFTVC
TAF
KTVC 012331Z 0200/0224 24009G15KT P6SM BKN028 OVC100
      TEMPO 0201/0203 2SM -SHSN
     FM020300 24009KT 2SM -SHSN OVC018
     FM020600 28009KT P6SM VCSH BKN025
     FM021000 29009G16KT P6SM SCT035
     FM022000 31007KT P6SM FEW035=

USA.gov is the U.S. government's official web portal to all federal, state and local government web resources and services.